Time;durP1;ratioP1;P1;durP2;ratioP2;P2;SDS_P1;SDS_P2;PMS_P1;PMS_P2;Temp;Humidity;BMP_temperature;BMP_pressure;BME280_temperature;BME280_humidity;BME280_pressure;Samples;Min_cycle;Max_cycle;Signal;HPM_P1;HPM_P2
2021/12/12 00:02:18;;;;;;;;;6.25;5.00;;;;;21.21;33.25;101757.19;5057108;28;45478;-60
2021/12/12 00:04:47;;;;;;;;;13.75;8.00;;;;;21.22;33.25;101755.41;5056530;28;45447;-56
2021/12/12 00:07:21;;;;;;;;;12.25;11.00;;;;;21.19;33.26;101759.03;5056716;28;45522;-57
2021/12/12 00:09:49;;;;;;;;;8.00;8.00;;;;;21.19;33.02;101753.75;5056936;28;45235;-45
2021/12/12 00:12:19;;;;;;;;;10.25;9.00;;;;;21.17;33.54;101750.31;5055820;28;45359;-50
2021/12/12 00:14:45;;;;;;;;;8.50;8.50;;;;;21.15;33.07;101749.53;5056618;28;45454;-50
2021/12/12 00:17:12;;;;;;;;;6.75;6.75;;;;;21.14;33.18;101745.19;5056779;28;45422;-55
2021/12/12 00:19:37;;;;;;;;;10.75;8.00;;;;;21.13;33.57;101748.75;5056379;28;45232;-59
2021/12/12 00:22:09;;;;;;;;;10.00;8.50;;;;;21.14;33.26;101747.81;5057121;28;45412;-57
2021/12/12 00:24:36;;;;;;;;;9.50;8.75;;;;;21.10;33.73;101730.44;5056839;28;45664;-50
2021/12/12 00:27:02;;;;;;;;;8.00;7.75;;;;;21.11;33.46;101737.44;5056752;28;45898;-53
2021/12/12 00:29:28;;;;;;;;;14.25;9.50;;;;;21.08;33.29;101733.13;5056643;28;45518;-48
2021/12/12 00:31:59;;;;;;;;;11.00;7.25;;;;;21.07;33.24;101730.56;5056485;28;45291;-50
2021/12/12 00:34:30;;;;;;;;;7.50;6.50;;;;;21.06;33.29;101736.75;5056229;28;46191;-49
2021/12/12 00:36:56;;;;;;;;;7.75;6.75;;;;;21.04;33.74;101731.56;5056155;28;45354;-50
2021/12/12 00:39:26;;;;;;;;;9.25;8.00;;;;;21.04;33.35;101742.09;5056512;28;45351;-53
2021/12/12 00:41:54;;;;;;;;;8.25;8.00;;;;;21.03;33.92;101729.84;5038486;28;45326;-58
2021/12/12 00:44:20;;;;;;;;;10.25;8.50;;;;;21.01;33.92;101732.53;5056061;28;46558;-53
2021/12/12 00:46:47;;;;;;;;;10.00;8.50;;;;;20.98;33.61;101732.69;5056198;28;45429;-53
2021/12/12 00:49:13;;;;;;;;;7.00;6.25;;;;;20.99;34.00;101739.66;5056346;28;45373;-54
2021/12/12 00:51:41;;;;;;;;;9.00;8.00;;;;;20.98;33.93;101737.97;5056369;28;45348;-57
2021/12/12 00:54:10;;;;;;;;;6.50;6.50;;;;;20.98;33.50;101743.22;5056289;28;46319;-56
2021/12/12 00:56:36;;;;;;;;;7.00;7.00;;;;;20.93;33.95;101732.00;5056384;28;45902;-55
2021/12/12 00:59:03;;;;;;;;;10.25;8.00;;;;;20.95;33.93;101735.44;5056208;28;45462;-56
2021/12/12 01:01:35;;;;;;;;;8.00;8.00;;;;;20.96;33.68;101725.75;5056394;28;45192;-50
2021/12/12 01:04:10;;;;;;;;;11.50;6.25;;;;;20.93;34.19;101734.66;5055884;28;46651;-52
2021/12/12 01:06:36;;;;;;;;;11.50;8.00;;;;;20.93;33.73;101729.38;5056138;28;45830;-53
2021/12/12 01:09:07;;;;;;;;;9.00;7.50;;;;;20.92;33.55;101721.56;5056084;28;45372;-57
2021/12/12 01:11:41;;;;;;;;;8.00;8.00;;;;;20.92;33.69;101724.19;5056195;28;45613;-57
2021/12/12 01:14:10;;;;;;;;;7.00;6.00;;;;;20.91;33.91;101725.09;5056085;28;45597;-57
2021/12/12 01:16:54;;;;;;;;;9.00;8.25;;;;;20.90;33.63;101724.22;5056150;28;45403;-55
2021/12/12 01:19:26;;;;;;;;;8.00;6.25;;;;;20.88;33.81;101722.59;5055927;28;45317;-57
2021/12/12 01:21:56;;;;;;;;;7.00;7.00;;;;;20.87;34.11;101724.38;5056181;28;45269;-54
2021/12/12 01:24:28;;;;;;;;;5.50;4.50;;;;;20.87;34.12;101732.28;5057648;28;46721;-57
2021/12/12 01:26:56;;;;;;;;;6.50;6.50;;;;;20.87;33.95;101723.50;5059241;28;45405;-57
2021/12/12 01:29:22;;;;;;;;;6.50;6.50;;;;;20.84;34.19;101729.78;5058465;28;45453;-54
2021/12/12 01:31:49;;;;;;;;;10.50;8.00;;;;;20.84;34.25;101732.41;5059332;28;45382;-57
2021/12/12 01:34:34;;;;;;;;;10.00;9.50;;;;;20.82;34.32;101732.50;5059017;28;47104;-57
2021/12/12 01:39:54;;;;;;;;;9.75;8.75;;;;;20.82;33.86;101742.16;5059315;28;45420;-57
2021/12/12 01:42:26;;;;;;;;;7.50;7.50;;;;;20.80;34.44;101750.13;5059390;28;45224;-57
2021/12/12 01:44:58;;;;;;;;;9.00;9.00;;;;;20.81;33.99;101745.69;5058810;28;45368;-55
2021/12/12 01:47:28;;;;;;;;;7.50;7.50;;;;;20.79;34.26;101744.91;5058940;28;45383;-55
2021/12/12 01:49:57;;;;;;;;;7.75;7.00;;;;;20.78;33.79;101740.59;5040841;28;45251;-57
2021/12/12 01:52:25;;;;;;;;;6.75;6.25;;;;;20.78;34.35;101741.44;5059155;28;45381;-56
2021/12/12 01:54:57;;;;;;;;;11.00;8.75;;;;;20.78;34.54;101751.13;5040608;28;47831;-56
2021/12/12 01:57:31;;;;;;;;;7.00;5.25;;;;;20.77;34.17;101744.13;5058746;28;45343;-55
2021/12/12 01:59:59;;;;;;;;;9.00;7.25;;;;;20.77;34.29;101746.78;5058797;28;45446;-56
2021/12/12 02:02:28;;;;;;;;;6.25;6.25;;;;;20.77;34.52;101749.41;5059050;28;45533;-58
2021/12/12 02:04:59;;;;;;;;;7.50;7.00;;;;;20.76;34.26;101755.59;5058475;28;46653;-54
2021/12/12 02:07:28;;;;;;;;;8.25;6.50;;;;;20.74;34.49;101753.00;5058595;28;45402;-54
2021/12/12 02:09:57;;;;;;;;;7.50;6.25;;;;;20.74;34.07;101760.91;5058872;28;45403;-56
2021/12/12 02:12:24;;;;;;;;;7.00;5.75;;;;;20.74;34.36;101762.66;5059027;28;45241;-53
2021/12/12 02:14:50;;;;;;;;;7.00;5.75;;;;;20.73;34.77;101766.22;5058360;28;45403;-52
2021/12/12 02:17:28;;;;;;;;;5.75;5.00;;;;;20.70;34.31;101754.88;5058691;28;45333;-53
2021/12/12 02:20:19;;;;;;;;;7.75;7.75;;;;;20.71;34.51;101763.66;5058564;28;45285;-52
2021/12/12 02:36:24;;;;;;;;;6.50;5.00;;;;;20.66;34.81;101773.50;5057266;28;45850;-49
2021/12/12 02:38:53;;;;;;;;;4.25;4.25;;;;;20.65;34.35;101772.66;5058213;28;45259;-58
2021/12/12 02:41:21;;;;;;;;;4.75;4.75;;;;;20.66;34.32;101779.66;5040296;28;45439;-53
2021/12/12 02:43:52;;;;;;;;;6.00;6.00;;;;;20.65;35.01;101772.66;5058328;28;45521;-53
2021/12/12 02:46:26;;;;;;;;;7.25;6.00;;;;;20.59;34.69;101772.91;5039922;28;48041;-54
2021/12/12 02:48:53;;;;;;;;;4.00;4.00;;;;;20.64;34.69;101777.97;5040794;28;45799;-51
2021/12/12 02:51:20;;;;;;;;;5.00;5.00;;;;;20.64;35.11;101781.50;5058169;28;45398;-52
2021/12/12 02:53:54;;;;;;;;;8.00;5.75;;;;;20.63;34.85;101784.16;5058019;28;45598;-50
2021/12/12 02:56:25;;;;;;;;;5.00;5.00;;;;;20.61;35.03;101778.97;5057783;28;46577;-47
2021/12/12 02:58:52;;;;;;;;;5.25;5.25;;;;;20.62;34.51;101788.59;5040411;28;45244;-56
2021/12/12 03:01:23;;;;;;;;;4.25;3.75;;;;;20.61;35.00;101776.34;5058027;28;45220;-57
2021/12/12 03:03:50;;;;;;;;;3.50;3.50;;;;;20.60;34.59;101779.88;5058096;28;45423;-55
2021/12/12 03:06:22;;;;;;;;;4.00;4.00;;;;;20.60;35.20;101786.94;5057588;28;47091;-52
2021/12/12 03:08:51;;;;;;;;;6.25;5.00;;;;;20.59;34.74;101796.59;5057824;28;46030;-56
2021/12/12 03:11:17;;;;;;;;;7.75;5.00;;;;;20.60;34.66;101794.84;5057650;28;45380;-56
2021/12/12 03:13:43;;;;;;;;;5.00;4.00;;;;;20.59;34.76;101793.13;5058000;28;45260;-55
2021/12/12 03:16:10;;;;;;;;;5.00;5.00;;;;;20.58;34.89;101796.69;5057471;28;45523;-56
2021/12/12 03:18:41;;;;;;;;;4.50;3.00;;;;;20.57;35.16;101784.44;5057418;28;45336;-57
2021/12/12 03:21:15;;;;;;;;;4.75;4.00;;;;;20.58;34.70;101796.69;5057625;28;45388;-57
2021/12/12 03:23:46;;;;;;;;;3.75;3.00;;;;;20.55;35.31;101792.41;5058164;28;45555;-56
2021/12/12 03:26:13;;;;;;;;;4.50;3.00;;;;;20.54;35.26;101790.69;5057533;28;45428;-51
2021/12/12 03:28:42;;;;;;;;;5.00;3.50;;;;;20.57;35.21;101794.97;5057436;28;45286;-54
2021/12/12 03:31:15;;;;;;;;;5.00;5.00;;;;;20.54;34.77;101790.69;5057399;28;45471;-55
2021/12/12 03:33:41;;;;;;;;;3.00;3.00;;;;;20.53;34.97;101791.59;5058025;28;45423;-50
2021/12/12 03:36:09;;;;;;;;;3.75;3.00;;;;;20.53;35.43;101791.59;5057158;28;46354;-57
2021/12/12 03:38:38;;;;;;;;;3.50;3.50;;;;;20.52;35.18;101795.16;5057035;28;45307;-53
2021/12/12 03:41:07;;;;;;;;;5.00;3.75;;;;;20.52;35.48;101796.00;5057360;28;45313;-54
2021/12/12 03:43:33;;;;;;;;;3.75;3.75;;;;;20.51;35.36;101796.06;5057450;28;45585;-56
2021/12/12 03:45:59;;;;;;;;;3.00;3.00;;;;;20.52;35.36;101795.16;5057028;28;46342;-56
2021/12/12 03:48:29;;;;;;;;;3.00;3.00;;;;;20.52;35.49;101797.78;5056973;28;45571;-57
2021/12/12 03:50:58;;;;;;;;;3.75;3.00;;;;;20.51;35.13;101793.44;5038965;28;45319;-56
2021/12/12 03:53:25;;;;;;;;;2.75;2.75;;;;;20.50;35.64;101792.59;5057320;28;45582;-55
2021/12/12 03:55:51;;;;;;;;;3.00;2.75;;;;;20.46;35.43;101787.47;5038617;28;47713;-58
2021/12/12 03:58:17;;;;;;;;;4.00;4.00;;;;;20.46;35.35;101782.22;5056952;28;45405;-52
2021/12/12 04:00:45;;;;;;;;;3.75;3.00;;;;;20.48;35.55;101780.38;5057420;28;45391;-54
2021/12/12 04:03:12;;;;;;;;;2.50;2.50;;;;;20.48;35.17;101790.91;5057263;28;45373;-53
2021/12/12 04:05:38;;;;;;;;;2.25;2.25;;;;;20.47;35.18;101795.34;5056683;28;45245;-57
2021/12/12 04:08:04;;;;;;;;;3.25;3.25;;;;;20.48;35.18;101788.28;5056796;28;45778;-56
2021/12/12 04:10:30;;;;;;;;;3.25;3.25;;;;;20.46;35.58;101796.25;5056697;28;45327;-52
2021/12/12 04:12:57;;;;;;;;;5.75;3.00;;;;;20.47;35.59;101794.47;5039193;28;45415;-58
2021/12/12 04:15:23;;;;;;;;;2.50;2.50;;;;;20.46;35.76;101798.00;5056629;28;45529;-55
2021/12/12 04:17:49;;;;;;;;;2.00;2.00;;;;;20.45;35.75;101805.06;5038517;28;45942;-58
2021/12/12 04:20:19;;;;;;;;;2.00;2.00;;;;;20.44;35.41;101810.41;5057164;28;45338;-58
2021/12/12 04:22:45;;;;;;;;;3.50;3.00;;;;;20.45;35.65;101802.44;5057336;28;45303;-58
2021/12/12 04:25:11;;;;;;;;;3.00;3.00;;;;;20.45;35.58;101805.06;5056493;28;46366;-57
2021/12/12 04:27:37;;;;;;;;;2.00;2.00;;;;;20.44;35.62;101802.50;5056580;28;45831;-57
2021/12/12 04:30:05;;;;;;;;;3.75;3.75;;;;;20.46;35.65;101813.81;5056541;28;45414;-58
2021/12/12 04:32:31;;;;;;;;;1.50;1.50;;;;;20.47;36.25;101812.91;5038819;28;45550;-58
2021/12/12 04:35:12;;;;;;;;;3.25;2.25;;;;;20.48;36.05;101811.97;5056463;28;46678;-56
2021/12/12 04:37:39;;;;;;;;;3.00;3.00;;;;;20.52;35.95;101813.59;5056412;28;45949;-56
2021/12/12 04:40:09;;;;;;;;;2.00;2.00;;;;;20.56;36.27;101817.78;5056552;28;45372;-57
2021/12/12 04:42:37;;;;;;;;;4.50;2.00;;;;;20.61;36.22;101825.53;5056632;28;45331;-58
2021/12/12 04:45:37;;;;;;;;;3.00;2.25;;;;;20.67;36.24;101815.59;5056079;28;46578;-57
2021/12/12 04:51:10;;;;;;;;;2.75;2.75;;;;;20.82;35.65;101826.47;5056293;28;45387;-59
2021/12/12 04:53:46;;;;;;;;;2.25;2.25;;;;;20.88;36.00;101831.50;5056524;28;45486;-60
2021/12/12 04:56:22;;;;;;;;;2.00;2.00;;;;;20.92;35.71;101830.44;5038040;28;47144;-54
2021/12/12 04:59:12;;;;;;;;;5.50;3.75;;;;;20.98;35.97;101827.56;5057581;28;45319;-59
2021/12/12 05:02:00;;;;;;;;;2.00;2.00;;;;;21.03;35.44;101837.03;5059910;28;45312;-56
2021/12/12 05:04:46;;;;;;;;;5.00;3.25;;;;;21.08;35.65;101832.44;5052353;28;45335;-55
2021/12/12 05:07:17;;;;;;;;;2.25;2.25;;;;;21.12;35.56;101839.28;5059508;28;46453;-58
2021/12/12 05:09:50;;;;;;;;;4.00;4.00;;;;;21.15;35.44;101841.78;5059651;28;45480;-55
2021/12/12 05:12:35;;;;;;;;;2.00;2.00;;;;;21.19;35.99;101832.84;5060114;28;45316;-55
2021/12/12 05:15:09;;;;;;;;;2.00;2.00;;;;;21.22;35.85;101840.59;5059814;28;45456;-55
2021/12/12 05:17:42;;;;;;;;;4.75;3.00;;;;;21.23;35.98;101842.31;5059281;28;45453;-54
2021/12/12 05:20:13;;;;;;;;;2.50;2.50;;;;;21.27;35.57;101835.16;5059406;28;45768;-60
2021/12/12 05:22:47;;;;;;;;;5.50;4.00;;;;;21.29;35.83;101846.47;5059551;28;45454;-53
2021/12/12 05:25:56;;;;;;;;;2.50;2.50;;;;;21.31;35.84;101844.63;5059866;28;45375;-56
2021/12/12 05:28:33;;;;;;;;;3.00;3.00;;;;;21.29;35.43;101836.81;5048296;28;45634;-56
2021/12/12 05:31:00;;;;;;;;;4.50;3.25;;;;;21.33;35.46;101841.97;5059417;28;45331;-58
2021/12/12 05:33:28;;;;;;;;;4.00;3.00;;;;;21.34;35.67;101846.28;5059381;28;45265;-58
2021/12/12 05:35:54;;;;;;;;;2.00;2.00;;;;;21.34;35.61;101849.78;5041407;28;45631;-59
2021/12/12 05:38:23;;;;;;;;;2.00;2.00;;;;;21.34;35.63;101854.19;5059452;28;46740;-58
2021/12/12 05:40:49;;;;;;;;;4.50;3.25;;;;;21.35;35.75;101858.53;5059371;28;45225;-59
2021/12/12 05:43:16;;;;;;;;;3.00;3.00;;;;;21.37;35.86;101860.22;5059382;28;45294;-57
2021/12/12 05:45:44;;;;;;;;;2.50;2.50;;;;;21.36;35.73;101857.63;5041299;28;45238;-59
2021/12/12 05:48:10;;;;;;;;;2.75;2.75;;;;;21.36;35.71;101857.63;5058902;28;46970;-58
2021/12/12 05:50:38;;;;;;;;;4.00;3.00;;;;;21.37;35.79;101859.34;5058926;28;45323;-57
2021/12/12 05:53:05;;;;;;;;;2.75;2.00;;;;;21.36;35.44;101862.91;5059067;28;45212;-58
2021/12/12 05:55:33;;;;;;;;;6.00;5.00;;;;;21.34;35.65;101870.88;5059146;28;45340;-59
2021/12/12 05:58:01;;;;;;;;;4.00;4.00;;;;;21.31;35.80;101877.16;5058657;28;46537;-57
2021/12/12 06:00:41;;;;;;;;;4.00;4.00;;;;;21.27;35.70;101866.81;5058690;28;45882;-57
2021/12/12 06:03:10;;;;;;;;;6.00;5.50;;;;;21.24;36.21;101875.69;5058797;28;45367;-58
2021/12/12 06:05:36;;;;;;;;;6.00;6.00;;;;;21.20;35.80;101874.13;5059000;28;45403;-58
2021/12/12 06:08:02;;;;;;;;;5.25;5.25;;;;;21.17;36.14;101880.34;5058658;28;46598;-53
2021/12/12 06:10:29;;;;;;;;;5.00;5.00;;;;;21.15;35.98;101876.06;5057313;28;45824;-58
2021/12/12 06:12:56;;;;;;;;;6.00;5.50;;;;;21.12;36.41;101871.78;5058697;28;45225;-57
2021/12/12 06:15:23;;;;;;;;;5.00;4.25;;;;;21.09;36.26;101866.63;5059202;28;45221;-58
2021/12/12 06:17:51;;;;;;;;;6.25;6.25;;;;;21.07;35.93;101888.72;5058507;28;47060;-57
2021/12/12 06:20:17;;;;;;;;;6.25;6.00;;;;;21.04;36.04;101896.75;5058474;28;45395;-57
2021/12/12 06:22:44;;;;;;;;;4.00;4.00;;;;;21.01;36.38;101895.94;5058612;28;45440;-57
2021/12/12 06:25:13;;;;;;;;;6.50;6.50;;;;;20.98;36.07;101896.09;5058710;28;45174;-58
2021/12/12 06:27:39;;;;;;;;;6.50;6.50;;;;;20.96;36.19;101897.91;5058206;28;46870;-56
2021/12/12 06:30:12;;;;;;;;;6.00;6.00;;;;;20.95;36.55;101895.31;5058234;28;45538;-56
2021/12/12 06:32:39;;;;;;;;;4.00;4.00;;;;;20.92;36.14;101888.41;5058477;28;45238;-57
2021/12/12 06:35:06;;;;;;;;;4.25;3.25;;;;;20.91;36.67;101894.59;5058500;28;45471;-56
2021/12/12 06:37:33;;;;;;;;;4.25;4.25;;;;;20.91;36.55;101899.88;5057915;28;45436;-56
2021/12/12 06:39:59;;;;;;;;;4.50;4.50;;;;;20.92;36.30;101901.59;5058143;28;45230;-58
2021/12/12 06:42:26;;;;;;;;;4.00;4.00;;;;;20.92;36.79;101909.50;5040657;28;45403;-57
2021/12/12 06:44:52;;;;;;;;;7.00;4.00;;;;;20.91;36.63;101899.03;5058675;28;45288;-58
2021/12/12 06:47:18;;;;;;;;;4.75;3.25;;;;;20.90;36.63;101908.69;5058206;28;46271;-56
2021/12/12 06:49:46;;;;;;;;;5.00;5.00;;;;;20.91;36.61;101914.84;5057846;28;45395;-58
2021/12/12 06:52:14;;;;;;;;;4.25;3.75;;;;;20.91;36.81;101918.31;5058007;28;45427;-57
2021/12/12 06:54:41;;;;;;;;;4.00;4.00;;;;;20.91;36.42;101913.03;5058114;28;45609;-58
2021/12/12 06:57:09;;;;;;;;;4.00;4.00;;;;;20.91;36.46;101922.75;5057835;28;45490;-57
2021/12/12 06:59:37;;;;;;;;;4.00;4.00;;;;;20.90;36.71;101932.41;5039699;28;45385;-58
2021/12/12 07:02:05;;;;;;;;;2.25;2.25;;;;;20.87;36.23;101926.41;5058013;28;45449;-58
2021/12/12 07:04:31;;;;;;;;;5.75;2.75;;;;;20.88;36.40;101931.63;5057983;28;45554;-58
2021/12/12 07:07:00;;;;;;;;;5.00;4.00;;;;;20.88;36.78;101931.63;5057706;28;46525;-57
2021/12/12 07:09:30;;;;;;;;;3.50;3.50;;;;;20.87;36.27;101935.19;5057732;28;46431;-47
2021/12/12 07:12:03;;;;;;;;;4.00;4.00;;;;;20.87;36.34;101942.22;5058064;28;45434;-58
2021/12/12 07:14:29;;;;;;;;;5.00;4.00;;;;;20.84;36.35;101940.56;5057565;28;45378;-56
2021/12/12 07:16:55;;;;;;;;;2.25;2.25;;;;;20.85;36.43;101937.00;5057628;28;46445;-57
2021/12/12 07:19:22;;;;;;;;;3.00;2.00;;;;;20.85;36.90;101937.00;5057339;28;45676;-58
2021/12/12 07:21:50;;;;;;;;;3.25;2.50;;;;;20.84;36.84;101940.56;5039159;28;45410;-57
2021/12/12 07:24:23;;;;;;;;;3.00;3.00;;;;;20.83;36.56;101937.09;5057585;28;45348;-59
2021/12/12 07:26:48;;;;;;;;;5.25;3.00;;;;;20.83;36.39;101936.22;5057154;28;45657;-57
2021/12/12 07:29:14;;;;;;;;;3.00;3.00;;;;;20.82;36.79;101947.66;5057277;28;45381;-51
2021/12/12 07:31:42;;;;;;;;;2.50;2.50;;;;;20.81;36.62;101945.94;5039523;28;45420;-55
2021/12/12 07:34:11;;;;;;;;;3.75;2.50;;;;;20.80;36.37;101945.09;5057500;28;45649;-56
2021/12/12 07:36:42;;;;;;;;;2.25;2.25;;;;;20.81;36.45;101953.84;5039035;28;46136;-57
2021/12/12 07:39:12;;;;;;;;;2.50;2.50;;;;;20.80;36.89;101960.03;5057253;28;45432;-58
2021/12/12 07:41:39;;;;;;;;;3.25;3.00;;;;;20.76;36.50;101954.03;5057101;28;45310;-50
2021/12/12 07:44:09;;;;;;;;;3.50;3.50;;;;;20.76;36.41;101951.41;5039787;28;45461;-55
2021/12/12 07:46:36;;;;;;;;;3.00;3.00;;;;;20.78;36.74;101967.16;5056959;28;46234;-52
2021/12/12 07:49:03;;;;;;;;;2.00;2.00;;;;;20.77;36.86;101960.19;5057121;28;45443;-53
2021/12/12 07:51:28;;;;;;;;;3.00;3.00;;;;;20.75;37.04;101960.22;5057291;28;45221;-49
2021/12/12 07:53:57;;;;;;;;;2.00;2.00;;;;;20.73;36.79;101959.38;5057569;28;45522;-51
2021/12/12 07:56:28;;;;;;;;;2.25;2.25;;;;;20.74;36.53;101962.88;5039028;28;48573;-55
2021/12/12 07:58:55;;;;;;;;;3.00;2.00;;;;;20.73;36.68;101963.81;5057146;28;45443;-56
2021/12/12 08:01:22;;;;;;;;;1.75;1.75;;;;;20.72;36.56;101968.22;5039134;28;45381;-56
2021/12/12 08:03:50;;;;;;;;;2.00;2.00;;;;;20.72;36.87;101970.00;5057086;28;45355;-58
2021/12/12 08:06:15;;;;;;;;;3.00;3.00;;;;;20.71;37.07;101971.78;5056805;28;45697;-54
2021/12/12 08:08:42;;;;;;;;;2.25;2.25;;;;;20.70;36.74;101970.91;5056709;28;45435;-53
2021/12/12 08:11:09;;;;;;;;;3.25;2.50;;;;;20.68;36.84;101967.47;5056783;28;45488;-46
2021/12/12 08:13:35;;;;;;;;;2.00;2.00;;;;;20.67;37.14;101971.00;5056944;28;45378;-53
2021/12/12 08:16:04;;;;;;;;;3.00;2.00;;;;;20.65;37.23;101974.63;5038450;28;47548;-52
2021/12/12 08:18:30;;;;;;;;;3.00;3.00;;;;;20.64;37.47;101981.69;5056909;28;45756;-46
2021/12/12 08:20:59;;;;;;;;;3.00;3.00;;;;;20.64;37.17;101979.06;5057029;28;45297;-52
2021/12/12 08:23:25;;;;;;;;;2.25;2.25;;;;;20.63;37.40;101977.31;5022237;28;45456;-48
2021/12/12 08:25:52;;;;;;;;;2.00;2.00;;;;;20.63;37.70;101977.31;5056368;28;45538;-53
2021/12/12 08:28:20;;;;;;;;;3.00;2.00;;;;;20.64;37.52;101978.19;5056402;28;45344;-53
2021/12/12 08:30:47;;;;;;;;;3.75;3.00;;;;;20.61;37.50;101980.94;5056486;28;45931;-56
2021/12/12 08:33:13;;;;;;;;;2.25;2.25;;;;;20.61;37.73;101975.69;5055609;28;45259;-51
2021/12/12 08:35:40;;;;;;;;;2.50;2.25;;;;;20.60;37.77;101980.06;5021540;28;46460;-57
2021/12/12 08:38:08;;;;;;;;;2.00;2.00;;;;;20.58;37.47;101987.16;5056418;28;45454;-57
2021/12/12 08:40:53;;;;;;;;;4.00;3.00;;;;;20.58;37.65;101992.44;5056472;28;45443;-57
2021/12/12 08:43:22;;;;;;;;;5.75;5.00;;;;;20.48;37.71;102001.59;5056716;28;45273;-55
2021/12/12 08:46:03;;;;;;;;;6.75;5.50;;;;;20.26;38.43;102006.78;5055930;28;45441;-58
2021/12/12 08:48:31;;;;;;;;;4.50;4.50;;;;;20.06;38.53;102006.56;5056593;28;45264;-60
2021/12/12 08:51:01;;;;;;;;;5.25;4.50;;;;;19.91;39.07;101996.56;5056591;28;45371;-59
2021/12/12 08:53:27;;;;;;;;;6.50;5.50;;;;;19.74;38.82;101995.34;5056631;28;45548;-60
2021/12/12 08:55:55;;;;;;;;;7.75;5.25;;;;;19.68;39.68;102000.78;5037799;28;48028;-61
2021/12/12 08:58:24;;;;;;;;;5.75;5.75;;;;;19.50;39.47;101990.88;5038023;28;45257;-60
2021/12/12 09:01:11;;;;;;;;;9.50;7.25;;;;;19.46;39.71;101996.22;5055964;28;45395;-60
2021/12/12 09:03:37;;;;;;;;;4.25;4.25;;;;;19.37;40.06;102004.41;5056185;28;45281;-63
2021/12/12 09:06:04;;;;;;;;;6.67;5.33;;;;;19.31;40.21;102007.25;5056007;28;46313;-48
2021/12/12 09:08:39;;;;;;;;;5.00;4.25;;;;;19.26;40.71;102014.41;5056119;28;45750;-61
2021/12/12 09:11:11;;;;;;;;;4.00;4.00;;;;;19.20;40.46;102014.63;5037808;28;45319;-60
2021/12/12 09:13:47;;;;;;;;;4.25;4.25;;;;;19.12;40.82;102018.34;5056140;28;45435;-60
2021/12/12 09:16:29;;;;;;;;;6.75;4.00;;;;;19.06;40.99;102021.16;5055849;28;45583;-55
2021/12/12 09:19:09;;;;;;;;;5.50;5.50;;;;;19.02;41.00;102022.13;5055067;28;45814;-55
2021/12/12 09:21:49;;;;;;;;;6.50;6.00;;;;;18.96;41.25;102025.81;5037843;28;45347;-55
2021/12/12 09:24:30;;;;;;;;;5.00;4.00;;;;;18.88;41.38;102024.31;5056246;28;45252;-58
2021/12/12 09:27:00;;;;;;;;;6.50;5.50;;;;;18.83;41.26;102027.91;5055799;28;45631;-59
2021/12/12 09:29:35;;;;;;;;;5.00;5.00;;;;;18.82;41.73;102022.72;5055881;28;45428;-51
2021/12/12 09:32:11;;;;;;;;;5.25;5.25;;;;;18.78;41.56;102024.56;5056207;28;45371;-56
2021/12/12 09:35:06;;;;;;;;;3.75;3.50;;;;;18.73;41.86;102021.22;5055809;28;45535;-50
2021/12/12 09:37:52;;;;;;;;;4.75;4.75;;;;;18.68;41.77;102023.13;5037799;28;47926;-52
2021/12/12 09:40:23;;;;;;;;;4.00;4.00;;;;;18.64;42.11;102027.56;5055696;28;46042;-56
2021/12/12 09:43:02;;;;;;;;;5.75;4.25;;;;;18.62;42.55;102023.28;5055715;28;45916;-49
2021/12/12 09:46:00;;;;;;;;;5.00;3.25;;;;;18.54;42.44;102021.75;5057860;28;45475;-51
2021/12/12 09:52:06;;;;;;;;;5.75;5.25;;;;;18.46;42.88;102028.97;5058874;28;45455;-52
2021/12/12 09:54:37;;;;;;;;;5.25;4.75;;;;;18.43;43.23;102028.16;5059187;28;45417;-46
2021/12/12 09:57:23;;;;;;;;;6.25;6.25;;;;;18.37;43.54;102019.59;5059550;28;45312;-57
2021/12/12 09:59:58;;;;;;;;;5.75;5.00;;;;;18.33;43.49;102028.44;5058914;28;46336;-55
2021/12/12 10:02:34;;;;;;;;;4.50;4.50;;;;;18.23;43.75;102017.34;5058765;28;45838;-49
2021/12/12 10:05:33;;;;;;;;;7.25;6.25;;;;;18.21;43.93;102029.63;5058909;28;45905;-53
2021/12/12 10:08:23;;;;;;;;;5.75;5.25;;;;;18.17;44.29;102030.59;5059017;28;45263;-53
2021/12/12 10:11:01;;;;;;;;;4.50;4.00;;;;;18.15;44.39;102031.56;5058596;28;46538;-58
2021/12/12 10:13:47;;;;;;;;;8.00;6.25;;;;;18.12;44.49;102029.88;5058450;28;45487;-49
2021/12/12 10:16:50;;;;;;;;;7.75;6.00;;;;;18.03;44.35;102030.09;5058616;28;45390;-54
2021/12/12 10:19:46;;;;;;;;;9.50;8.00;;;;;17.97;44.84;102035.50;4960526;28;45581;-53
2021/12/12 10:22:14;;;;;;;;;8.00;7.00;;;;;17.90;45.09;102027.78;5040141;28;47378;-60
2021/12/12 10:24:54;;;;;;;;;6.00;6.00;;;;;17.91;44.99;102034.72;5058361;28;45289;-55
2021/12/12 10:27:50;;;;;;;;;6.00;6.00;;;;;17.88;45.19;102034.81;5058551;28;45363;-56
2021/12/12 10:30:24;;;;;;;;;12.75;10.75;;;;;17.85;45.19;102032.25;5058335;28;45439;-55
2021/12/12 10:32:50;;;;;;;;;10.00;8.00;;;;;17.85;45.22;102037.50;5058080;28;46309;-55
2021/12/12 10:35:24;;;;;;;;;10.00;7.00;;;;;17.86;45.25;102033.97;5058202;28;45524;-60
2021/12/12 10:38:04;;;;;;;;;9.75;7.75;;;;;17.89;45.27;102038.28;5058215;28;45354;-59
2021/12/12 10:40:49;;;;;;;;;11.25;8.50;;;;;17.85;45.52;102039.28;5058230;28;45264;-59
2021/12/12 10:43:23;;;;;;;;;6.75;6.75;;;;;17.82;45.54;102037.56;5057410;28;46347;-59
2021/12/12 10:46:02;;;;;;;;;9.25;6.75;;;;;17.82;45.93;102039.34;5058141;28;45355;-59
2021/12/12 10:49:09;;;;;;;;;8.75;6.75;;;;;17.80;45.72;102025.41;5058225;28;45255;-57
2021/12/12 10:51:40;;;;;;;;;6.25;6.25;;;;;17.78;45.82;102033.31;5040415;28;45293;-60
2021/12/12 10:54:19;;;;;;;;;7.00;6.00;;;;;17.78;46.09;102035.94;5058005;28;45528;-60
2021/12/12 10:56:57;;;;;;;;;5.00;5.00;;;;;17.78;45.91;102041.19;5057080;28;46014;-60
2021/12/12 10:59:29;;;;;;;;;7.00;7.00;;;;;17.79;45.94;102037.66;5057817;28;45397;-59
2021/12/12 11:02:18;;;;;;;;;5.75;5.75;;;;;17.80;45.89;102036.78;5057914;28;45434;-59
2021/12/12 11:04:52;;;;;;;;;7.00;6.00;;;;;17.82;45.98;102034.94;5057146;28;46008;-58
2021/12/12 11:07:18;;;;;;;;;5.75;5.00;;;;;17.82;46.01;102040.19;5057856;28;46590;-57
2021/12/12 11:09:59;;;;;;;;;7.67;6.00;;;;;17.81;46.06;102030.59;5039599;28;45313;-57
2021/12/12 11:12:33;;;;;;;;;4.00;4.00;;;;;17.83;46.00;102039.28;5039693;28;45629;-58
2021/12/12 11:15:19;;;;;;;;;4.50;4.00;;;;;17.88;45.79;102026.06;5057568;28;46722;-57
2021/12/12 11:18:03;;;;;;;;;4.25;4.25;;;;;18.05;45.45;102041.41;5039298;28;45847;-57
2021/12/12 11:20:38;;;;;;;;;3.25;3.25;;;;;18.17;45.42;102037.63;5057849;28;45320;-51
2021/12/12 11:23:15;;;;;;;;;4.25;3.00;;;;;18.29;45.09;102041.69;5057706;28;45205;-56
2021/12/12 11:25:49;;;;;;;;;3.00;3.00;;;;;18.36;45.11;102038.84;5057268;28;46845;-54
2021/12/12 11:28:20;;;;;;;;;3.50;3.00;;;;;18.49;44.91;102044.63;5057294;28;45281;-57
2021/12/12 11:30:56;;;;;;;;;2.25;2.25;;;;;18.56;44.73;102040.06;5057505;28;45415;-53
2021/12/12 11:33:25;;;;;;;;;6.00;3.00;;;;;18.62;44.41;102044.28;5057524;28;45400;-58
2021/12/12 11:35:54;;;;;;;;;4.00;4.00;;;;;18.70;44.34;102047.53;5057215;28;45690;-52
2021/12/12 11:38:43;;;;;;;;;3.00;3.00;;;;;18.76;44.09;102044.75;5057195;28;45338;-57
2021/12/12 11:41:17;;;;;;;;;3.00;3.00;;;;;18.80;44.59;102035.88;5057523;28;45367;-53
2021/12/12 11:44:01;;;;;;;;;3.00;3.00;;;;;18.88;44.38;102037.44;5057627;28;45390;-52
2021/12/12 11:46:35;;;;;;;;;3.00;3.00;;;;;18.96;44.23;102038.09;5056995;28;45682;-58
2021/12/12 11:49:03;;;;;;;;;4.50;4.00;;;;;19.04;44.04;102033.47;5055660;28;46188;-53
2021/12/12 11:51:33;;;;;;;;;2.75;2.00;;;;;19.11;43.80;102037.66;5056016;28;45790;-58
2021/12/12 11:54:30;;;;;;;;;3.00;3.00;;;;;19.22;43.54;102039.09;5055784;28;45431;-57
2021/12/12 11:57:07;;;;;;;;;3.00;3.00;;;;;19.34;43.71;102037.84;5056778;28;46817;-57
2021/12/12 11:59:35;;;;;;;;;3.00;3.00;;;;;19.45;43.47;102041.00;5056314;28;45650;-57
2021/12/12 12:02:25;;;;;;;;;3.00;3.00;;;;;19.53;43.44;102038.97;5056969;28;45413;-56
2021/12/12 12:04:59;;;;;;;;;2.75;2.75;;;;;19.65;43.07;102043.00;5056745;28;45335;-58
2021/12/12 12:07:51;;;;;;;;;2.75;2.75;;;;;19.72;42.71;102041.03;5056486;28;47358;-58
2021/12/12 12:10:45;;;;;;;;;2.75;2.25;;;;;19.82;42.79;102038.94;5056037;28;45394;-56